Time;durP1;ratioP1;P1;durP2;ratioP2;P2;SDS_P1;SDS_P2;PMS_P1;PMS_P2;Temp;Humidity;BMP_temperature;BMP_pressure;BME280_temperature;BME280_humidity;BME280_pressure;Samples;Min_cycle;Max_cycle;Signal;HPM_P1;HPM_P2
2022/04/18 00:02:23;;;;;;;13.90;7.60;;;;;;;13.21;38.23;102063.25;5024639;27;99196;-70
2022/04/18 00:04:50;;;;;;;16.25;8.07;;;;;;;13.41;37.85;102059.16;5024562;28;98930;-69
2022/04/18 00:07:18;;;;;;;13.13;8.05;;;;;;;13.44;38.30;102061.75;5029220;27;97547;-70
2022/04/18 00:09:45;;;;;;;11.60;7.50;;;;;;;12.89;39.59;102061.34;5025108;28;96893;-69
2022/04/18 00:12:11;;;;;;;15.32;8.60;;;;;;;12.54;39.59;102059.53;5026701;27;97953;-70
2022/04/18 00:14:37;;;;;;;14.48;8.20;;;;;;;12.72;39.98;102062.66;5027069;27;98976;-69
2022/04/18 00:17:09;;;;;;;13.65;7.85;;;;;;;12.57;41.29;102063.00;5026954;27;96777;-70
2022/04/18 00:19:35;;;;;;;13.90;8.13;;;;;;;12.47;41.81;102052.66;5030308;27;96798;-70
2022/04/18 00:22:01;;;;;;;15.88;8.65;;;;;;;13.11;40.09;102046.66;5024985;28;99428;-69
2022/04/18 00:24:29;;;;;;;13.40;8.30;;;;;;;12.90;40.17;102048.06;5019156;28;97079;-69
2022/04/18 00:26:56;;;;;;;14.63;7.88;;;;;;;12.55;40.91;102055.97;5027639;28;96847;-70
2022/04/18 00:29:22;;;;;;;13.35;7.78;;;;;;;12.24;42.53;102046.06;5031407;28;97375;-71
2022/04/18 00:31:49;;;;;;;17.70;8.30;;;;;;;12.28;42.51;102045.09;5029208;28;97713;-69
2022/04/18 00:34:15;;;;;;;13.80;7.95;;;;;;;12.48;42.09;102041.09;5025725;27;99147;-70
2022/04/18 00:36:43;;;;;;;16.35;9.18;;;;;;;12.38;41.99;102036.03;5026966;28;96791;-70
2022/04/18 00:39:10;;;;;;;14.40;8.20;;;;;;;12.13;42.73;102037.50;5025482;27;97287;-69
2022/04/18 00:41:38;;;;;;;14.77;8.63;;;;;;;12.54;41.65;102038.31;5028454;27;98906;-69
2022/04/18 00:44:05;;;;;;;15.30;8.20;;;;;;;12.43;41.80;102030.63;5028887;28;99210;-71
2022/04/18 00:46:31;;;;;;;14.10;8.43;;;;;;;12.16;42.19;102026.81;5030584;28;96974;-69
2022/04/18 00:48:58;;;;;;;15.82;9.32;;;;;;;12.34;41.78;102025.50;5025377;27;97006;-70
2022/04/18 00:51:26;;;;;;;17.30;9.15;;;;;;;12.50;40.89;102020.75;5030959;28;99239;-71
2022/04/18 00:53:54;;;;;;;16.05;8.43;;;;;;;12.22;42.15;102010.78;5027681;27;97814;-69
2022/04/18 00:56:21;;;;;;;20.00;8.70;;;;;;;12.07;42.42;102011.13;5025131;28;96730;-70
2022/04/18 00:58:50;;;;;;;14.48;8.38;;;;;;;12.03;43.00;102011.19;5024274;28;96775;-69
2022/04/18 01:01:18;;;;;;;15.48;8.85;;;;;;;11.69;43.87;102009.22;5023986;28;98812;-70
2022/04/18 01:03:45;;;;;;;14.93;8.48;;;;;;;11.66;44.07;102006.66;5026135;28;98035;-70
2022/04/18 01:06:15;;;;;;;18.85;9.48;;;;;;;11.82;43.61;102016.03;5028140;28;97222;-70
2022/04/18 01:08:42;;;;;;;15.85;10.00;;;;;;;12.14;43.29;102014.50;5023283;27;96866;-70
2022/04/18 01:11:09;;;;;;;15.02;9.68;;;;;;;11.84;43.79;102005.44;5022646;28;99004;-69
2022/04/18 01:13:43;;;;;;;16.42;8.70;;;;;;;12.12;43.17;102003.94;5029733;28;99206;-70
2022/04/18 01:16:11;;;;;;;16.50;9.52;;;;;;;12.43;42.53;101998.81;5025524;27;96785;-70
2022/04/18 01:18:38;;;;;;;14.75;8.75;;;;;;;12.03;43.29;101993.53;5027830;27;97245;-69
2022/04/18 01:21:06;;;;;;;16.13;9.30;;;;;;;11.90;43.58;101992.94;5027053;27;97968;-69
2022/04/18 01:23:33;;;;;;;12.85;8.20;;;;;;;11.59;44.58;102003.25;5022450;28;98706;-69
2022/04/18 01:29:02;;;;;;;16.33;9.48;;;;;;;11.56;44.82;101992.72;5022168;28;96816;-69
2022/04/18 01:31:29;;;;;;;23.02;10.10;;;;;;;11.35;45.44;101987.84;5029796;28;98813;-69
2022/04/18 01:33:56;;;;;;;18.15;9.52;;;;;;;11.44;45.05;101987.66;5026841;27;99067;-68
2022/04/18 01:36:24;;;;;;;13.10;8.32;;;;;;;11.78;44.52;101985.25;5024938;27;96709;-68
2022/04/18 01:38:51;;;;;;;15.55;9.43;;;;;;;11.47;44.66;101979.69;5030916;28;96907;-70
2022/04/18 01:41:19;;;;;;;15.70;9.48;;;;;;;11.87;44.23;101987.72;5029935;28;98370;-69
2022/04/18 01:43:46;;;;;;;19.55;9.45;;;;;;;11.67;43.83;101983.69;5022735;28;98846;-70
2022/04/18 01:46:12;;;;;;;18.08;9.45;;;;;;;11.37;44.97;101970.16;5028875;27;96752;-69
2022/04/18 01:48:39;;;;;;;15.52;9.90;;;;;;;11.51;44.44;101973.41;5030814;28;97025;-70
2022/04/18 01:51:05;;;;;;;17.42;9.60;;;;;;;11.45;44.79;101976.19;5027648;28;99044;-69
2022/04/18 01:53:33;;;;;;;16.80;10.05;;;;;;;11.43;44.92;101969.16;5023624;28;98921;-69
2022/04/18 01:56:00;;;;;;;16.20;9.88;;;;;;;11.25;45.57;101962.44;5028119;27;99003;-69
2022/04/18 01:58:26;;;;;;;18.52;10.10;;;;;;;11.46;45.39;101969.09;5027759;28;97272;-69
2022/04/18 02:00:53;;;;;;;17.50;9.57;;;;;;;11.27;45.89;101952.72;5022820;28;100582;-69
2022/04/18 02:03:19;;;;;;;15.82;9.57;;;;;;;11.51;45.20;101965.47;5026528;28;99160;-70
2022/04/18 02:05:47;;;;;;;19.42;9.75;;;;;;;11.69;44.89;101960.69;5026932;27;97209;-69
2022/04/18 02:08:13;;;;;;;18.42;10.65;;;;;;;11.52;44.98;101955.75;5025773;28;97096;-68
2022/04/18 02:10:41;;;;;;;18.45;10.23;;;;;;;11.71;43.80;101958.88;5019517;28;99370;-69
2022/04/18 02:13:07;;;;;;;15.85;10.07;;;;;;;11.89;43.16;101947.94;5029005;28;99082;-70
2022/04/18 02:15:34;;;;;;;20.13;10.75;;;;;;;11.93;43.28;101954.91;5026731;28;97093;-69
2022/04/18 02:18:00;;;;;;;17.60;9.60;;;;;;;12.00;43.36;101945.94;5023775;28;98072;-69
2022/04/18 02:20:27;;;;;;;17.42;10.00;;;;;;;12.13;42.58;101954.47;5026891;27;98534;-69
2022/04/18 02:22:55;;;;;;;19.73;10.30;;;;;;;11.69;42.72;101950.09;5026322;28;98825;-70
2022/04/18 02:25:22;;;;;;;16.45;9.70;;;;;;;11.66;42.92;101947.53;5026326;27;97087;-69
2022/04/18 02:27:51;;;;;;;19.35;10.70;;;;;;;11.69;43.04;101956.25;5027283;28;98278;-70
2022/04/18 02:30:18;;;;;;;15.45;9.95;;;;;;;11.74;42.86;101949.16;5026499;28;98950;-70
2022/04/18 02:32:51;;;;;;;18.58;9.95;;;;;;;11.78;43.17;101945.53;5027751;28;97607;-70
2022/04/18 02:35:18;;;;;;;17.40;10.40;;;;;;;11.64;42.83;101947.56;5030403;28;96863;-70
2022/04/18 02:37:45;;;;;;;16.52;9.75;;;;;;;11.58;43.22;101947.69;5028976;28;98855;-69
2022/04/18 02:40:12;;;;;;;15.35;9.23;;;;;;;11.54;42.91;101944.25;5025654;28;99005;-71
2022/04/18 02:42:40;;;;;;;18.13;10.43;;;;;;;11.64;42.92;101941.38;5029707;27;98066;-70
2022/04/18 02:45:09;;;;;;;14.77;9.32;;;;;;;11.76;42.72;101931.44;5029377;28;96856;-69
2022/04/18 02:47:35;;;;;;;15.82;9.60;;;;;;;11.65;42.60;101933.41;5029348;28;98037;-69
2022/04/18 02:50:01;;;;;;;16.63;9.68;;;;;;;11.65;42.47;101933.41;5020278;28;99041;-69
2022/04/18 02:52:28;;;;;;;26.77;12.13;;;;;;;11.73;42.85;101928.84;5029083;28;98138;-69
2022/04/18 02:54:54;;;;;;;21.10;10.35;;;;;;;11.61;42.94;101929.09;5027639;27;97076;-69
2022/04/18 02:57:21;;;;;;;16.58;8.60;;;;;;;11.67;42.76;101928.09;5022367;28;99228;-68
2022/04/18 02:59:47;;;;;;;14.70;9.00;;;;;;;11.88;42.39;101927.66;5026750;28;99020;-70
2022/04/18 03:02:15;;;;;;;14.00;8.77;;;;;;;11.76;42.40;101917.31;5029027;28;99194;-69
2022/04/18 03:04:41;;;;;;;14.57;8.70;;;;;;;11.81;42.37;101929.59;5023986;28;98063;-70
2022/04/18 03:07:08;;;;;;;14.85;9.30;;;;;;;11.73;42.33;101920.00;5024948;27;98658;-70
2022/04/18 03:09:34;;;;;;;16.92;9.02;;;;;;;11.61;42.72;101930.88;5021610;28;99042;-70
2022/04/18 03:12:02;;;;;;;16.40;8.52;;;;;;;11.48;43.69;101924.97;5025927;27;99096;-69
2022/04/18 03:14:29;;;;;;;15.05;8.27;;;;;;;11.18;44.02;101921.13;5024703;28;96974;-71
2022/04/18 03:16:56;;;;;;;16.85;8.95;;;;;;;10.91;44.34;101917.25;5034230;27;96839;-70
2022/04/18 03:19:25;;;;;;;15.30;8.65;;;;;;;10.53;45.55;101915.28;5027826;27;99634;-73
2022/04/18 03:21:51;;;;;;;15.63;8.55;;;;;;;10.83;45.20;101913.00;5033350;28;99567;-69
2022/04/18 03:24:17;;;;;;;14.40;9.05;;;;;;;10.55;45.37;101913.47;5023268;27;96838;-70
2022/04/18 03:26:45;;;;;;;14.27;9.20;;;;;;;10.62;45.67;101911.59;5031913;28;97205;-69
2022/04/18 03:29:11;;;;;;;12.88;7.88;;;;;;;10.90;44.98;101915.50;5023945;28;98969;-69
2022/04/18 03:31:38;;;;;;;17.17;9.00;;;;;;;10.95;44.76;101908.38;5026948;28;98948;-70
2022/04/18 03:34:04;;;;;;;16.25;9.40;;;;;;;11.04;44.39;101909.94;5027813;28;96810;-69
2022/04/18 03:42:00;;;;;;;15.25;9.20;;;;;;;10.78;44.71;101907.78;5020334;28;97113;-69
2022/04/18 03:44:26;;;;;;;15.35;9.43;;;;;;;11.06;44.21;101906.38;5031753;28;97781;-69
2022/04/18 03:46:52;;;;;;;13.70;8.05;;;;;;;11.04;44.67;101902.00;5032237;28;96795;-69
2022/04/18 03:49:20;;;;;;;13.85;8.82;;;;;;;11.21;44.19;101904.34;5027078;27;99159;-70
2022/04/18 03:51:48;;;;;;;17.30;9.07;;;;;;;11.00;44.63;101905.63;5028713;27;101257;-70
2022/04/18 03:54:14;;;;;;;15.02;8.98;;;;;;;10.96;44.75;101901.31;5029164;28;96690;-72
2022/04/18 03:56:41;;;;;;;13.60;8.48;;;;;;;10.95;44.99;101899.56;5019175;28;97907;-70
2022/04/18 03:59:07;;;;;;;14.45;9.30;;;;;;;11.12;44.28;101892.16;5028436;28;99198;-69
2022/04/18 04:01:34;;;;;;;14.07;8.52;;;;;;;10.98;44.59;101892.44;5024623;27;98887;-68
2022/04/18 04:04:00;;;;;;;16.02;8.52;;;;;;;11.12;44.21;101890.38;5032695;28;96804;-69
2022/04/18 04:06:27;;;;;;;14.57;9.00;;;;;;;10.95;45.13;101891.63;5027945;27;96798;-68
2022/04/18 04:08:55;;;;;;;14.80;8.85;;;;;;;10.60;46.60;101898.41;5026139;28;98734;-70
2022/04/18 04:11:21;;;;;;;14.27;8.70;;;;;;;10.68;46.36;101899.16;5029360;27;99008;-70
2022/04/18 04:13:47;;;;;;;16.27;9.80;;;;;;;10.81;46.17;101899.81;5020975;28;96989;-70
2022/04/18 04:16:14;;;;;;;14.13;9.32;;;;;;;10.54;46.63;101906.44;5025645;28;96889;-71
2022/04/18 04:18:40;;;;;;;14.70;9.13;;;;;;;10.32;47.64;101905.03;5021367;28;98882;-68
2022/04/18 04:21:06;;;;;;;16.45;9.65;;;;;;;10.76;46.58;101907.81;5026230;27;98907;-70
2022/04/18 04:23:33;;;;;;;13.98;9.23;;;;;;;10.98;45.61;101907.41;5019990;28;96683;-70
2022/04/18 04:26:00;;;;;;;19.05;9.95;;;;;;;11.30;43.64;101901.50;5028253;28;97188;-69
2022/04/18 04:28:27;;;;;;;16.83;9.60;;;;;;;11.19;43.23;101907.88;5030331;27;99128;-70
2022/04/18 04:30:53;;;;;;;18.73;10.10;;;;;;;10.74;44.11;101899.03;5028197;28;97857;-70
2022/04/18 04:33:20;;;;;;;21.42;9.30;;;;;;;10.44;44.82;101902.19;5031626;28;97020;-69
2022/04/18 04:35:46;;;;;;;18.15;9.75;;;;;;;10.38;44.92;101892.59;5023121;28;96895;-69
2022/04/18 04:38:12;;;;;;;20.52;10.27;;;;;;;10.07;45.35;101887.81;5027755;28;97671;-69
2022/04/18 04:40:39;;;;;;;22.23;10.23;;;;;;;10.51;44.79;101887.13;5026357;27;99349;-70
2022/04/18 04:43:06;;;;;;;21.05;9.82;;;;;;;10.59;44.34;101878.16;5025742;28;96705;-70
2022/04/18 04:45:33;;;;;;;22.13;10.70;;;;;;;10.93;43.38;101867.84;5027819;28;97856;-69
2022/04/18 04:47:59;;;;;;;24.75;10.70;;;;;;;10.93;43.29;101873.13;5029345;28;99943;-69
2022/04/18 04:50:25;;;;;;;21.40;11.30;;;;;;;10.81;43.43;101877.78;5027793;27;99224;-69
2022/04/18 04:52:52;;;;;;;22.00;10.00;;;;;;;11.04;43.25;101878.22;5024763;27;96828;-69
2022/04/18 04:55:19;;;;;;;23.27;11.07;;;;;;;10.37;44.36;101879.44;5030705;27;97186;-69
2022/04/18 04:57:46;;;;;;;23.38;11.45;;;;;;;10.65;43.65;101877.19;5028109;28;98960;-69
2022/04/18 05:00:14;;;;;;;19.67;9.80;;;;;;;10.86;43.78;101876.78;5027891;27;99121;-69
2022/04/18 05:02:42;;;;;;;17.60;10.57;;;;;;;10.96;43.54;101875.69;5027727;28;98508;-69
2022/04/18 05:05:09;;;;;;;18.13;10.18;;;;;;;11.45;42.51;101883.53;5029476;27;96895;-70
2022/04/18 05:07:35;;;;;;;18.52;10.10;;;;;;;11.35;42.41;101878.47;5026567;28;98933;-70
2022/04/18 05:10:02;;;;;;;20.20;10.90;;;;;;;11.16;42.83;101876.19;5024708;27;98752;-70
2022/04/18 05:12:31;;;;;;;22.83;11.00;;;;;;;11.27;42.50;101883.94;5017033;28;96636;-69
2022/04/18 05:15:01;;;;;;;23.88;11.93;;;;;;;11.02;43.24;101883.56;5028147;28;96952;-70
2022/04/18 05:17:29;;;;;;;18.98;10.90;;;;;;;10.66;43.81;101877.16;5023365;27;99043;-69
2022/04/18 05:19:56;;;;;;;20.85;11.30;;;;;;;10.71;43.74;101879.72;5031144;28;98839;-69
2022/04/18 05:22:22;;;;;;;25.10;11.23;;;;;;;10.47;44.15;101882.78;5020697;27;97119;-69
2022/04/18 05:24:49;;;;;;;23.45;11.32;;;;;;;11.10;42.94;101878.09;5028738;28;96824;-69
2022/04/18 05:27:16;;;;;;;22.48;11.38;;;;;;;11.12;42.88;101878.94;5022521;28;98865;-69
2022/04/18 05:29:42;;;;;;;24.75;10.57;;;;;;;10.23;44.73;101876.16;5023403;28;98832;-69
2022/04/18 05:32:09;;;;;;;21.00;10.45;;;;;;;10.37;44.73;101877.66;5026063;27;97029;-69
2022/04/18 05:34:37;;;;;;;24.45;10.70;;;;;;;10.56;44.41;101875.59;5027746;27;96901;-69
2022/04/18 05:37:04;;;;;;;20.77;10.35;;;;;;;10.86;44.12;101882.06;5026011;27;96906;-69
2022/04/18 05:39:31;;;;;;;24.88;10.73;;;;;;;11.47;42.53;101876.44;5031327;28;99061;-69
2022/04/18 05:41:57;;;;;;;22.67;11.43;;;;;;;11.55;42.49;101878.94;5029868;27;97168;-69
2022/04/18 05:44:24;;;;;;;25.23;11.48;;;;;;;11.45;42.25;101882.66;5024684;27;96812;-69
2022/04/18 05:46:50;;;;;;;24.05;11.45;;;;;;;11.43;42.20;101880.03;5030529;28;99059;-68
2022/04/18 05:49:17;;;;;;;23.42;11.40;;;;;;;12.01;41.29;101881.44;5034126;27;97672;-70
2022/04/18 05:51:45;;;;;;;22.65;11.45;;;;;;;11.90;41.45;101878.16;5024737;27;96735;-68
2022/04/18 05:54:11;;;;;;;21.65;11.10;;;;;;;12.55;40.26;101880.97;5029809;27;96880;-69
2022/04/18 05:56:38;;;;;;;21.42;11.35;;;;;;;12.22;40.00;101882.69;5030421;28;99501;-69
2022/04/18 05:59:05;;;;;;;24.40;12.10;;;;;;;11.47;42.36;101883.50;5022368;28;99301;-70
2022/04/18 06:01:31;;;;;;;22.05;11.48;;;;;;;12.09;40.85;101887.41;5024232;28;97114;-70
2022/04/18 06:03:58;;;;;;;24.08;12.10;;;;;;;12.40;40.29;101876.09;5030162;28;97667;-69
2022/04/18 06:06:25;;;;;;;26.95;12.63;;;;;;;12.59;39.83;101885.31;5028884;28;99106;-69
2022/04/18 06:08:52;;;;;;;26.10;11.40;;;;;;;11.88;41.07;101883.50;5023273;28;98931;-70
2022/04/18 06:11:19;;;;;;;25.42;11.52;;;;;;;11.52;41.90;101890.44;5029123;28;97059;-70
2022/04/18 06:13:45;;;;;;;21.42;11.73;;;;;;;11.50;42.20;101886.94;5030586;27;97386;-70
2022/04/18 06:16:12;;;;;;;23.52;11.48;;;;;;;12.18;40.84;101887.22;5021412;28;98710;-69
2022/04/18 06:18:38;;;;;;;27.70;12.38;;;;;;;12.87;39.33;101886.31;5024845;28;97676;-69
2022/04/18 06:21:06;;;;;;;21.55;11.15;;;;;;;13.45;38.23;101882.06;5028793;28;96978;-69
2022/04/18 06:23:32;;;;;;;26.50;12.02;;;;;;;12.84;39.16;101885.53;5023803;28;96835;-69
2022/04/18 06:26:00;;;;;;;24.67;11.68;;;;;;;12.73;39.35;101884.03;5023640;28;97805;-69
2022/04/18 06:28:27;;;;;;;26.30;11.30;;;;;;;13.94;37.18;101882.31;5023245;27;99163;-70
2022/04/18 06:30:53;;;;;;;25.85;12.90;;;;;;;13.87;36.93;101875.44;5031335;28;96727;-71
2022/04/18 06:33:20;;;;;;;21.13;10.57;;;;;;;13.77;37.73;101874.00;5025874;28;97491;-69
2022/04/18 06:35:46;;;;;;;22.23;11.95;;;;;;;14.22;36.81;101877.00;5024182;28;101198;-70
2022/04/18 06:38:13;;;;;;;21.60;11.95;;;;;;;12.75;39.08;101878.69;5021402;28;100629;-69
2022/04/18 06:40:39;;;;;;;23.42;11.68;;;;;;;12.91;38.76;101885.34;5022256;28;96826;-69
2022/04/18 06:43:07;;;;;;;18.92;11.30;;;;;;;12.92;38.83;101878.25;5031232;28;97245;-70
2022/04/18 06:45:34;;;;;;;22.58;11.23;;;;;;;12.37;39.97;101877.91;5023824;28;98919;-70
2022/04/18 06:48:00;;;;;;;18.50;10.73;;;;;;;12.91;39.54;101877.38;5027817;28;99025;-69
2022/04/18 06:50:26;;;;;;;18.90;10.38;;;;;;;13.16;38.94;101878.47;5026853;27;96871;-70
2022/04/18 06:52:54;;;;;;;19.00;10.75;;;;;;;13.80;37.34;101876.56;5024864;27;97031;-69
2022/04/18 06:55:20;;;;;;;18.50;10.52;;;;;;;13.86;37.01;101867.53;5031658;28;99241;-70
2022/04/18 06:57:46;;;;;;;19.63;10.93;;;;;;;13.86;37.37;101873.69;5024631;28;99258;-70
2022/04/18 07:00:14;;;;;;;20.73;10.48;;;;;;;14.01;36.79;101876.81;5024449;27;97805;-70
2022/04/18 07:02:45;;;;;;;17.65;10.55;;;;;;;13.75;37.50;101867.88;5029359;28;96912;-70
2022/04/18 07:05:11;;;;;;;20.15;10.60;;;;;;;13.47;37.88;101869.59;5025374;28;102375;-69
2022/04/18 07:07:37;;;;;;;17.98;9.07;;;;;;;15.19;35.14;101866.53;5030410;28;99892;-69
2022/04/18 07:10:05;;;;;;;18.17;9.88;;;;;;;16.44;32.69;101865.16;5029980;28;96644;-72
2022/04/18 07:12:32;;;;;;;16.52;9.65;;;;;;;15.75;33.71;101867.09;5031947;28;96856;-70
2022/04/18 07:14:59;;;;;;;16.58;9.23;;;;;;;15.33;34.14;101864.25;5022967;28;99239;-71
2022/04/18 07:17:27;;;;;;;16.02;9.55;;;;;;;14.26;36.08;101864.44;5029849;28;98915;-70
2022/04/18 07:19:53;;;;;;;15.32;8.98;;;;;;;14.50;35.90;101866.34;5031138;28;97218;-70
2022/04/18 07:22:20;;;;;;;20.00;10.05;;;;;;;14.23;36.44;101868.09;5029578;27;96949;-69
2022/04/18 07:24:46;;;;;;;16.73;9.13;;;;;;;14.03;36.48;101851.06;5026611;27;98979;-70
2022/04/18 07:27:12;;;;;;;14.43;8.00;;;;;;;14.07;36.59;101869.50;5029277;28;98725;-70
2022/04/18 07:29:39;;;;;;;13.00;8.32;;;;;;;14.15;36.54;101862.16;5025767;28;96809;-70
2022/04/18 07:32:07;;;;;;;13.80;7.75;;;;;;;14.60;35.97;101857.13;5030395;28;97411;-69
2022/04/18 07:34:35;;;;;;;14.07;8.55;;;;;;;15.19;34.71;101861.22;5024621;28;99532;-69
2022/04/18 07:37:01;;;;;;;13.38;7.72;;;;;;;16.28;32.50;101855.09;5028899;28;99022;-70
2022/04/18 07:39:28;;;;;;;14.50;7.75;;;;;;;15.50;33.28;101856.47;5030592;28;97027;-69
2022/04/18 07:41:54;;;;;;;18.20;7.80;;;;;;;15.73;32.83;101858.28;5026076;27;96964;-71
2022/04/18 07:44:22;;;;;;;14.05;8.25;;;;;;;17.03;31.03;101860.78;5024564;28;98924;-70
2022/04/18 07:46:48;;;;;;;13.38;8.07;;;;;;;16.80;31.36;101852.94;5025018;28;99807;-69
2022/04/18 07:49:14;;;;;;;15.35;7.88;;;;;;;17.28;31.02;101851.66;5028587;28;96786;-70
2022/04/18 07:51:42;;;;;;;11.77;8.07;;;;;;;17.88;29.94;101848.81;5028923;28;97478;-68
2022/04/18 07:54:11;;;;;;;14.43;7.75;;;;;;;18.25;29.00;101849.66;5028524;27;99673;-69
2022/04/18 07:56:37;;;;;;;12.13;7.22;;;;;;;17.87;29.75;101848.88;5029068;27;99853;-69
2022/04/18 07:59:05;;;;;;;10.43;6.25;;;;;;;17.33;29.77;101850.50;5031750;28;98925;-69
2022/04/18 08:01:32;;;;;;;13.40;7.63;;;;;;;15.80;32.57;101852.66;5025870;27;96911;-69
2022/04/18 08:04:00;;;;;;;11.00;6.97;;;;;;;16.44;31.41;101852.69;5016418;27;99194;-70
2022/04/18 08:06:26;;;;;;;10.57;6.03;;;;;;;16.43;31.36;101844.72;5027872;28;99271;-69
2022/04/18 08:08:54;;;;;;;11.82;6.22;;;;;;;15.89;32.06;101846.94;5029630;28;97308;-69
2022/04/18 08:11:21;;;;;;;9.00;5.63;;;;;;;14.74;33.93;101851.31;5027896;27;96814;-70
2022/04/18 08:13:49;;;;;;;8.70;6.00;;;;;;;14.69;34.14;101850.63;5021156;27;99710;-70
2022/04/18 08:16:18;;;;;;;9.02;5.32;;;;;;;15.33;33.15;101851.78;5019331;27;98841;-69
2022/04/18 08:18:45;;;;;;;10.73;6.28;;;;;;;16.25;31.48;101844.59;5021645;27;98929;-70
2022/04/18 08:21:13;;;;;;;12.05;6.13;;;;;;;16.72;30.69;101847.94;5025302;27;97465;-70
2022/04/18 08:23:39;;;;;;;4.90;3.72;;;;;;;16.15;30.70;101839.69;5026774;27;98992;-70
2022/04/18 08:26:07;;;;;;;5.07;3.45;;;;;;;17.02;28.99;101836.81;5023175;27;101028;-70
2022/04/18 08:28:34;;;;;;;7.60;3.55;;;;;;;16.27;29.73;101840.06;5023360;27;98438;-70
2022/04/18 08:31:01;;;;;;;7.72;4.25;;;;;;;16.16;30.73;101831.63;5025931;28;98503;-70
2022/04/18 08:33:29;;;;;;;6.65;4.50;;;;;;;16.35;30.17;101832.59;5024105;27;98738;-71
2022/04/18 08:35:56;;;;;;;6.93;3.90;;;;;;;16.53;29.85;101833.63;5025964;27;101505;-70
2022/04/18 08:38:22;;;;;;;5.68;3.85;;;;;;;17.17;29.20;101827.25;5020482;27;98976;-69
2022/04/18 08:40:51;;;;;;;9.18;3.50;;;;;;;16.34;29.32;101827.34;5023147;27;97833;-69
2022/04/18 08:43:19;;;;;;;6.72;3.75;;;;;;;16.24;29.68;101828.63;5020541;27;98191;-69
2022/04/18 08:45:46;;;;;;;4.93;2.92;;;;;;;17.27;28.30;101823.22;5025205;27;99091;-69
2022/04/18 08:53:41;;;;;;;3.85;2.67;;;;;;;17.70;27.18;101817.63;5020042;27;99321;-70
2022/04/18 08:56:08;;;;;;;4.88;3.35;;;;;;;17.32;27.89;101816.75;5018652;27;98134;-70
2022/04/18 08:58:36;;;;;;;3.80;3.03;;;;;;;17.98;27.16;101811.81;5021502;27;99158;-72
2022/04/18 09:01:04;;;;;;;5.90;2.78;;;;;;;17.91;26.53;101813.91;5020282;27;97389;-70
2022/04/18 09:03:30;;;;;;;7.18;2.65;;;;;;;17.85;26.63;101803.50;5023864;27;98951;-69
2022/04/18 09:06:08;;;;;;;4.80;3.35;;;;;;;18.46;25.93;101805.75;5021636;27;99347;-70
2022/04/18 09:08:36;;;;;;;3.95;2.78;;;;;;;17.89;26.01;101797.06;5021997;27;96802;-70
2022/04/18 09:11:02;;;;;;;5.72;3.10;;;;;;;18.25;25.94;101798.81;5022116;27;97251;-70
2022/04/18 09:13:28;;;;;;;4.07;2.10;;;;;;;17.25;26.80;101799.25;5022206;28;98976;-70
2022/04/18 09:15:56;;;;;;;4.22;2.40;;;;;;;18.17;25.84;101790.34;5017739;27;99221;-70
2022/04/18 09:18:24;;;;;;;5.13;1.90;;;;;;;17.77;25.44;101788.78;5024566;27;97142;-71
2022/04/18 09:20:52;;;;;;;4.05;1.88;;;;;;;17.55;25.42;101796.94;5027414;27;96778;-70
2022/04/18 09:23:24;;;;;;;4.80;1.67;;;;;;;17.17;26.41;101788.06;5030989;27;101314;-68
2022/04/18 09:25:56;;;;;;;3.53;2.55;;;;;;;17.22;26.82;101787.84;5025768;28;99177;-70
2022/04/18 09:28:26;;;;;;;2.55;1.98;;;;;;;16.80;27.14;101786.22;5018654;27;97007;-70
2022/04/18 09:31:08;;;;;;;3.28;2.00;;;;;;;17.60;26.04;101770.84;5020917;27;98291;-70
2022/04/18 09:33:43;;;;;;;3.33;1.77;;;;;;;17.70;26.01;101774.00;5022446;27;98909;-69
2022/04/18 09:36:11;;;;;;;7.18;2.83;;;;;;;18.51;25.10;101770.75;5020636;28;98907;-70
2022/04/18 09:38:39;;;;;;;4.03;2.20;;;;;;;18.75;25.11;101768.63;5022244;27;96873;-70
2022/04/18 09:41:06;;;;;;;4.15;2.35;;;;;;;18.54;25.24;101771.44;5023942;27;98594;-69
2022/04/18 09:43:41;;;;;;;3.78;2.30;;;;;;;16.62;27.27;101761.19;5022884;27;99307;-71
2022/04/18 09:46:10;;;;;;;2.55;2.10;;;;;;;16.84;27.42;101760.22;5004033;28;100338;-70
2022/04/18 09:48:37;;;;;;;5.72;2.72;;;;;;;17.04;27.59;101763.72;5022018;27;97415;-69
2022/04/18 09:51:11;;;;;;;4.80;2.42;;;;;;;17.76;26.32;101753.16;5025842;27;96851;-70
2022/04/18 09:53:39;;;;;;;3.85;2.70;;;;;;;17.70;26.57;101752.59;5023912;27;98778;-69
2022/04/18 09:56:08;;;;;;;5.57;2.85;;;;;;;17.48;26.93;101742.06;5022776;27;98744;-69
2022/04/18 09:58:36;;;;;;;3.15;2.13;;;;;;;17.42;26.99;101753.03;5020747;27;98007;-69
2022/04/18 10:01:05;;;;;;;5.47;2.80;;;;;;;16.88;27.70;101746.66;5025064;27;97479;-69
2022/04/18 10:03:33;;;;;;;3.17;2.20;;;;;;;17.07;27.24;101741.34;5024836;27;98960;-70
2022/04/18 10:06:01;;;;;;;6.35;2.20;;;;;;;17.18;26.71;101738.19;5023925;27;97853;-69
2022/04/18 10:08:28;;;;;;;5.10;2.28;;;;;;;16.50;27.69;101742.16;5024873;28;98006;-68
2022/04/18 10:10:57;;;;;;;4.47;2.00;;;;;;;17.10;26.89;101736.75;5022063;28;98307;-69
2022/04/18 10:13:24;;;;;;;5.05;2.22;;;;;;;17.43;26.16;101734.25;5021797;27;98828;-69
2022/04/18 10:15:51;;;;;;;3.55;2.28;;;;;;;17.72;25.39;101727.50;5020928;27;97667;-69
2022/04/18 10:18:18;;;;;;;6.40;2.92;;;;;;;18.15;25.61;101725.34;5021088;28;96773;-70
2022/04/18 10:21:06;;;;;;;4.50;2.47;;;;;;;17.58;26.40;101729.13;5026757;28;97456;-69
2022/04/18 10:24:02;;;;;;;3.58;2.38;;;;;;;18.49;25.75;101717.31;5026922;27;99328;-70
2022/04/18 10:27:02;;;;;;;2.75;1.92;;;;;;;18.52;24.91;101725.16;4987851;28;98947;-69
2022/04/18 10:29:32;;;;;;;4.60;1.80;;;;;;;17.80;26.14;101717.31;5028694;27;96766;-69
2022/04/18 10:32:03;;;;;;;2.88;1.90;;;;;;;18.26;25.57;101721.16;5028005;27;98322;-69
2022/04/18 10:34:32;;;;;;;4.55;1.92;;;;;;;18.68;25.40;101715.41;5024682;28;99291;-69
2022/04/18 10:37:02;;;;;;;4.53;2.00;;;;;;;18.11;26.25;101711.28;5025866;27;98309;-71
2022/04/18 10:39:34;;;;;;;3.42;1.50;;;;;;;18.24;25.42;101707.03;5022549;27;98329;-71
2022/04/18 10:42:19;;;;;;;4.20;1.90;;;;;;;17.21;26.63;101706.84;5022932;27;96924;-70
2022/04/18 10:44:58;;;;;;;2.42;1.60;;;;;;;18.20;26.03;101713.47;5028584;27;99044;-69
2022/04/18 10:47:25;;;;;;;8.00;2.72;;;;;;;17.70;27.10;101705.34;5030719;28;99075;-69
2022/04/18 10:50:17;;;;;;;8.65;4.57;;;;;;;17.26;27.56;101703.97;5031486;27;96904;-70
2022/04/18 10:53:12;;;;;;;4.20;2.20;;;;;;;18.45;26.38;101696.13;5020799;27;97976;-71
2022/04/18 10:55:42;;;;;;;4.03;2.28;;;;;;;18.86;25.57;101693.91;5027052;28;99761;-70
2022/04/18 10:58:11;;;;;;;9.93;2.33;;;;;;;18.13;26.86;101697.81;5024028;27;102706;-70
2022/04/18 11:00:50;;;;;;;3.33;2.30;;;;;;;17.76;26.96;101689.00;5027170;27;97607;-70
2022/04/18 11:03:50;;;;;;;4.25;1.92;;;;;;;17.67;27.51;101689.47;5026430;27;97513;-69
2022/04/18 11:06:49;;;;;;;6.28;2.35;;;;;;;18.02;28.21;101689.47;5026220;28;98070;-69
2022/04/18 11:09:20;;;;;;;3.20;1.92;;;;;;;17.09;27.69;101680.72;5026041;27;100026;-70
2022/04/18 11:11:50;;;;;;;3.58;2.28;;;;;;;18.35;28.17;101682.38;5025153;27;97729;-70
2022/04/18 11:14:22;;;;;;;2.90;2.28;;;;;;;18.27;26.37;101676.56;5026308;28;98386;-71
2022/04/18 11:16:57;;;;;;;2.65;1.88;;;;;;;18.53;26.22;101673.34;5025386;28;98618;-70
2022/04/18 11:19:27;;;;;;;3.85;2.22;;;;;;;18.74;25.99;101675.84;5019048;27;99803;-70
2022/04/18 11:22:20;;;;;;;4.25;1.80;;;;;;;18.72;26.30;101667.91;5026121;27;96860;-71
2022/04/18 11:25:02;;;;;;;5.28;2.17;;;;;;;18.59;26.10;101662.34;5025200;28;97238;-69
2022/04/18 11:27:34;;;;;;;2.88;1.90;;;;;;;17.66;26.85;101663.66;5018119;27;98331;-72
2022/04/18 11:30:03;;;;;;;3.33;1.80;;;;;;;18.36;26.40;101660.03;5025154;27;97893;-70
2022/04/18 11:32:32;;;;;;;3.00;1.80;;;;;;;18.03;26.41;101657.31;5021637;27;98805;-69
2022/04/18 11:35:00;;;;;;;4.63;1.98;;;;;;;17.16;27.60;101646.56;5024507;27;97848;-71
2022/04/18 11:37:28;;;;;;;3.83;1.63;;;;;;;17.60;27.02;101647.03;5030614;28;99638;-71